createdAt,value
2022-10-15T00:01:52.167Z,3.95
2022-10-15T00:04:19.923Z,4.00
2022-10-15T00:06:47.404Z,3.80
2022-10-15T00:09:14.790Z,3.60
2022-10-15T00:11:42.210Z,4.03
2022-10-15T00:14:09.680Z,3.90
2022-10-15T00:16:37.230Z,3.42
2022-10-15T00:19:04.647Z,3.58
2022-10-15T00:21:32.226Z,3.67
2022-10-15T00:23:59.689Z,3.60
2022-10-15T00:26:28.349Z,3.55
2022-10-15T00:28:57.251Z,3.85
2022-10-15T00:31:26.500Z,3.55
2022-10-15T00:33:54.608Z,3.67
2022-10-15T00:36:24.922Z,3.85
2022-10-15T00:38:53.015Z,3.65
2022-10-15T00:41:29.512Z,3.58
2022-10-15T00:43:58.394Z,3.83
2022-10-15T00:46:40.140Z,4.05
2022-10-15T00:49:17.409Z,3.55
2022-10-15T00:51:50.216Z,3.50
2022-10-15T00:54:17.712Z,3.47
2022-10-15T00:56:45.817Z,3.75
2022-10-15T00:59:14.511Z,3.53
2022-10-15T01:01:42.764Z,3.42
2022-10-15T01:04:10.238Z,3.35
2022-10-15T01:06:38.415Z,3.50
2022-10-15T01:09:06.159Z,2.97
2022-10-15T01:11:50.256Z,3.00
2022-10-15T01:14:27.063Z,3.45
2022-10-15T01:17:13.723Z,3.63
2022-10-15T01:19:49.070Z,3.03
2022-10-15T01:22:35.215Z,3.50
2022-10-15T01:25:07.169Z,3.42
2022-10-15T01:27:53.267Z,3.42
2022-10-15T01:30:29.463Z,3.33
2022-10-15T01:32:57.017Z,3.50
2022-10-15T01:35:35.808Z,3.60
2022-10-15T01:38:09.473Z,3.80
2022-10-15T01:40:43.559Z,3.55
2022-10-15T01:43:14.160Z,3.70
2022-10-15T01:46:08.055Z,4.13
2022-10-15T01:48:42.911Z,3.90
2022-10-15T01:51:12.046Z,3.85
2022-10-15T01:53:39.959Z,4.40
2022-10-15T01:56:10.464Z,4.47
2022-10-15T01:58:47.877Z,4.32
2022-10-15T02:01:16.315Z,4.43
2022-10-15T02:03:51.282Z,4.22
2022-10-15T02:06:25.014Z,4.22
2022-10-15T02:08:58.739Z,4.30
2022-10-15T02:11:26.256Z,4.07
2022-10-15T02:13:55.915Z,3.80
2022-10-15T02:16:30.262Z,4.13
2022-10-15T02:19:04.108Z,4.50
2022-10-15T02:21:41.555Z,4.18
2022-10-15T02:24:12.186Z,4.00
2022-10-15T02:26:40.406Z,3.70
2022-10-15T02:29:11.304Z,4.60
2022-10-15T02:31:39.778Z,4.18
2022-10-15T02:34:09.063Z,4.20
2022-10-15T02:36:40.436Z,3.90
2022-10-15T02:39:09.306Z,4.35
2022-10-15T02:41:36.905Z,4.28
2022-10-15T02:44:04.776Z,4.00
2022-10-15T02:46:32.428Z,4.10
2022-10-15T02:48:59.895Z,4.95
2022-10-15T02:51:27.304Z,4.43
2022-10-15T02:53:55.148Z,4.05
2022-10-15T02:56:22.607Z,4.18
2022-10-15T02:58:50.097Z,4.40
2022-10-15T03:01:19.092Z,4.10
2022-10-15T03:03:46.713Z,4.15
2022-10-15T03:06:14.430Z,4.05
2022-10-15T03:08:42.963Z,4.00
2022-10-15T03:11:11.229Z,4.00
2022-10-15T03:13:42.174Z,3.88
2022-10-15T03:16:11.107Z,3.95
2022-10-15T03:18:41.046Z,4.03
2022-10-15T03:21:10.648Z,4.18
2022-10-15T03:23:39.333Z,4.30
2022-10-15T03:26:12.620Z,4.18
2022-10-15T03:28:40.446Z,3.92
2022-10-15T03:31:08.046Z,4.40
2022-10-15T03:33:35.497Z,4.13
2022-10-15T03:36:03.616Z,4.50
2022-10-15T03:38:32.950Z,4.47
2022-10-15T03:41:02.952Z,4.55
2022-10-15T03:43:37.509Z,4.22
2022-10-15T03:46:08.697Z,4.45
2022-10-15T03:48:40.728Z,4.28
2022-10-15T03:51:09.431Z,5.03
2022-10-15T03:53:36.827Z,4.57
2022-10-15T03:56:07.573Z,5.30
2022-10-15T03:58:38.412Z,4.93
2022-10-15T04:01:11.572Z,5.20
2022-10-15T04:03:39.619Z,7.55
2022-10-15T04:06:07.405Z,5.60
2022-10-15T04:08:36.085Z,4.78
2022-10-15T04:11:18.218Z,5.20
2022-10-15T04:13:50.117Z,4.72
2022-10-15T04:16:18.468Z,4.60
2022-10-15T04:18:45.870Z,5.28
2022-10-15T04:21:13.883Z,6.35
2022-10-15T04:23:44.841Z,5.80
2022-10-15T04:26:32.573Z,6.38
2022-10-15T04:29:01.477Z,5.75
2022-10-15T04:31:29.943Z,5.32
2022-10-15T04:33:58.652Z,5.28
2022-10-15T04:36:26.655Z,4.78
2022-10-15T04:38:59.586Z,4.60
2022-10-15T04:41:36.587Z,5.70
2022-10-15T04:44:15.326Z,4.38
2022-10-15T04:46:48.808Z,4.45
2022-10-15T04:49:27.644Z,4.78
2022-10-15T04:51:55.903Z,4.03
2022-10-15T04:54:29.125Z,4.28
2022-10-15T04:56:59.500Z,4.68
2022-10-15T04:59:28.026Z,4.25
2022-10-15T05:02:13.956Z,4.38
2022-10-15T05:04:42.233Z,4.63
2022-10-15T05:07:09.791Z,5.13
2022-10-15T05:09:38.661Z,4.35
2022-10-15T05:12:06.872Z,4.57
2022-10-15T05:14:35.850Z,4.80
2022-10-15T05:19:41.287Z,5.13
2022-10-15T05:22:16.369Z,5.93
2022-10-15T05:24:50.232Z,5.72
2022-10-15T05:27:29.775Z,5.40
2022-10-15T05:29:57.503Z,4.60
2022-10-15T05:32:32.184Z,4.93
2022-10-15T05:34:59.730Z,4.47
2022-10-15T05:37:39.515Z,5.35
2022-10-15T05:40:07.190Z,5.20
2022-10-15T05:42:34.626Z,6.00
2022-10-15T05:45:02.091Z,7.68
2022-10-15T05:47:30.492Z,8.18
2022-10-15T05:50:13.696Z,5.88
2022-10-15T05:52:45.376Z,5.88
2022-10-15T05:55:31.365Z,4.80
2022-10-15T05:58:02.131Z,5.15
2022-10-15T06:00:29.696Z,5.13
2022-10-15T06:02:57.092Z,5.22
2022-10-15T06:05:24.993Z,4.88
2022-10-15T06:07:52.462Z,4.70
2022-10-15T06:10:20.020Z,4.75
2022-10-15T06:12:51.603Z,4.72
2022-10-15T06:15:19.878Z,4.85
2022-10-15T06:17:47.392Z,4.95
2022-10-15T06:20:14.980Z,4.82
2022-10-15T06:22:42.643Z,6.22
2022-10-15T06:25:10.447Z,6.13
2022-10-15T06:27:37.909Z,6.75
2022-10-15T06:30:05.583Z,6.13
2022-10-15T06:32:32.988Z,6.43
2022-10-15T06:35:00.373Z,5.75
2022-10-15T06:37:29.632Z,19.42
2022-10-15T06:39:59.260Z,6.53
2022-10-15T06:42:26.699Z,6.65
2022-10-15T06:44:56.155Z,5.85
2022-10-15T06:47:23.728Z,6.15
2022-10-15T06:49:51.341Z,6.05
2022-10-15T06:52:18.857Z,6.38
2022-10-15T06:54:46.276Z,6.15
2022-10-15T06:57:14.549Z,6.93
2022-10-15T06:59:41.990Z,5.72
2022-10-15T07:02:14.209Z,6.22
2022-10-15T07:04:41.751Z,7.30
2022-10-15T07:07:09.178Z,6.05
2022-10-15T07:09:36.904Z,6.25
2022-10-15T07:12:04.857Z,6.30
2022-10-15T07:14:32.563Z,5.43
2022-10-15T07:17:00.236Z,5.82
2022-10-15T07:19:29.332Z,5.53
2022-10-15T07:21:56.811Z,5.22
2022-10-15T07:24:24.312Z,5.63
2022-10-15T07:26:52.141Z,4.97
2022-10-15T07:29:19.528Z,5.65
2022-10-15T07:31:48.462Z,5.03
2022-10-15T07:34:16.994Z,4.10
2022-10-15T07:36:44.480Z,4.72
2022-10-15T07:39:11.935Z,4.88
2022-10-15T07:41:39.395Z,4.45
2022-10-15T07:44:06.807Z,3.88
2022-10-15T07:46:34.515Z,3.35
2022-10-15T07:49:02.172Z,3.90
2022-10-15T07:51:29.579Z,4.15
2022-10-15T07:53:57.045Z,4.30
2022-10-15T07:56:24.856Z,4.40
2022-10-15T07:58:52.255Z,4.95
2022-10-15T08:01:20.879Z,5.10
2022-10-15T08:03:48.469Z,4.75
2022-10-15T08:06:16.007Z,4.50
2022-10-15T08:08:43.931Z,4.82
2022-10-15T08:11:12.982Z,5.60
2022-10-15T08:13:42.215Z,5.00
2022-10-15T08:16:10.978Z,5.18
2022-10-15T08:18:38.704Z,5.35
2022-10-15T08:21:06.870Z,5.40
2022-10-15T08:23:34.671Z,5.70
2022-10-15T08:26:02.292Z,5.55
2022-10-15T08:28:29.817Z,6.70
2022-10-15T08:31:04.356Z,6.50
2022-10-15T08:33:33.962Z,7.25
2022-10-15T08:36:01.785Z,13.30
2022-10-15T08:38:31.100Z,7.45
2022-10-15T08:41:00.290Z,19.92
2022-10-15T08:43:38.244Z,8.30
2022-10-15T08:46:13.482Z,10.02
2022-10-15T08:48:43.213Z,6.43
2022-10-15T08:51:13.470Z,6.30
2022-10-15T08:53:45.789Z,5.80
2022-10-15T08:56:16.201Z,4.50
2022-10-15T08:58:52.771Z,4.20
2022-10-15T09:01:23.249Z,4.68
2022-10-15T09:04:08.271Z,4.38
2022-10-15T09:06:37.273Z,4.50
2022-10-15T09:09:07.580Z,4.32
2022-10-15T09:12:04.893Z,4.10
2022-10-15T09:14:34.215Z,4.38
2022-10-15T09:17:05.600Z,4.32
2022-10-15T09:19:35.560Z,4.13
2022-10-15T09:22:03.462Z,3.75
2022-10-15T09:24:31.159Z,3.40
2022-10-15T09:27:01.692Z,3.83
2022-10-15T09:29:32.275Z,3.90
2022-10-15T09:32:18.583Z,4.15
2022-10-15T09:34:51.119Z,3.63
2022-10-15T09:37:24.309Z,4.30
2022-10-15T09:39:57.379Z,4.55
2022-10-15T09:42:37.059Z,4.55
2022-10-15T09:45:06.184Z,4.40
2022-10-15T09:47:37.944Z,5.63
2022-10-15T09:50:06.987Z,5.00
2022-10-15T09:52:49.365Z,4.03
2022-10-15T09:55:29.024Z,4.97
2022-10-15T09:57:59.895Z,4.88
2022-10-15T10:00:47.323Z,5.05
2022-10-15T10:03:16.183Z,4.93
2022-10-15T10:05:43.604Z,5.82
2022-10-15T10:08:12.203Z,7.85
2022-10-15T10:10:42.998Z,4.55
2022-10-15T10:13:27.185Z,7.75
2022-10-15T10:15:58.449Z,8.27
2022-10-15T10:18:27.148Z,5.45
2022-10-15T10:20:59.655Z,4.75
2022-10-15T10:23:31.610Z,5.82
2022-10-15T10:26:00.162Z,4.47
2022-10-15T10:28:47.837Z,4.18
2022-10-15T10:31:15.689Z,3.80
2022-10-15T10:33:43.074Z,4.28
2022-10-15T10:36:21.309Z,3.92
2022-10-15T10:39:04.407Z,4.10
2022-10-15T10:41:53.369Z,3.70
2022-10-15T10:44:27.677Z,4.72
2022-10-15T10:47:10.693Z,5.50
2022-10-15T10:49:40.125Z,3.67
2022-10-15T10:52:19.238Z,4.00
2022-10-15T10:54:46.826Z,3.85
2022-10-15T10:57:16.307Z,4.10
2022-10-15T10:59:49.540Z,4.25
2022-10-15T11:02:17.007Z,4.32
2022-10-15T11:04:44.591Z,3.95
2022-10-15T11:07:14.834Z,3.40
2022-10-15T11:09:51.097Z,5.10
2022-10-15T11:12:41.080Z,4.32
2022-10-15T11:15:27.316Z,3.90
2022-10-15T11:18:06.821Z,3.72
2022-10-15T11:20:57.860Z,3.63
2022-10-15T11:23:46.015Z,3.92
2022-10-15T11:26:19.387Z,3.53
2022-10-15T11:29:05.613Z,5.80
2022-10-15T11:32:01.641Z,5.75
2022-10-15T11:34:33.258Z,4.10
2022-10-15T11:37:00.599Z,4.65
2022-10-15T11:39:40.248Z,3.90
2022-10-15T11:42:16.922Z,3.53
2022-10-15T11:44:44.318Z,3.80
2022-10-15T11:47:26.913Z,3.67
2022-10-15T11:50:12.558Z,3.47
2022-10-15T11:52:46.009Z,3.50
2022-10-15T11:55:21.632Z,3.08
2022-10-15T11:57:50.596Z,4.40
2022-10-15T12:00:24.133Z,6.50
2022-10-15T12:02:51.881Z,4.53
2022-10-15T12:05:34.431Z,5.65
2022-10-15T12:08:02.189Z,4.38
2022-10-15T12:10:44.909Z,3.55
2022-10-15T12:13:31.120Z,4.20
2022-10-15T12:16:01.319Z,5.28
2022-10-15T12:18:34.875Z,5.95
2022-10-15T12:21:02.337Z,4.68
2022-10-15T12:23:35.856Z,5.20
2022-10-15T12:28:32.913Z,4.05
2022-10-15T12:31:02.004Z,5.45
2022-10-15T12:33:29.507Z,4.18
2022-10-15T12:35:58.302Z,4.70
2022-10-15T12:38:30.374Z,5.05
2022-10-15T12:40:59.791Z,4.35
2022-10-15T12:43:28.965Z,4.35
2022-10-15T12:46:00.970Z,4.47
2022-10-15T12:48:33.694Z,4.70
2022-10-15T12:51:20.064Z,4.95
2022-10-15T12:53:48.759Z,4.35
2022-10-15T12:56:16.110Z,4.28
2022-10-15T12:58:43.532Z,4.72
2022-10-15T13:01:13.911Z,5.38
2022-10-15T13:03:50.903Z,7.63
2022-10-15T13:06:21.293Z,5.60
2022-10-15T13:08:50.631Z,6.15
2022-10-15T13:11:25.978Z,3.85
2022-10-15T13:13:56.398Z,7.93
2022-10-15T13:16:23.976Z,7.43
2022-10-15T13:18:52.598Z,5.85
2022-10-15T13:21:20.167Z,7.78
2022-10-15T13:23:49.041Z,7.28
2022-10-15T13:26:21.433Z,7.82
2022-10-15T13:28:50.149Z,6.80
2022-10-15T13:31:26.004Z,7.10
2022-10-15T13:33:59.591Z,6.65
2022-10-15T13:36:28.456Z,11.52
2022-10-15T13:39:04.961Z,12.82
2022-10-15T13:41:34.605Z,7.88
2022-10-15T13:44:03.041Z,6.93
2022-10-15T13:46:37.803Z,6.90
2022-10-15T13:49:11.252Z,5.97
2022-10-15T13:51:40.449Z,14.85
2022-10-15T13:54:21.728Z,23.98
2022-10-15T13:57:02.760Z,14.73
2022-10-15T13:59:31.587Z,90.63
2022-10-15T14:02:04.376Z,157.82
2022-10-15T14:04:33.558Z,48.78
2022-10-15T14:07:03.429Z,57.00
2022-10-15T14:09:35.701Z,10.77
2022-10-15T14:12:05.632Z,16.80
2022-10-15T14:14:33.135Z,67.72
2022-10-15T14:17:02.144Z,69.97
2022-10-15T14:19:30.246Z,44.20
2022-10-15T14:22:01.911Z,31.65
2022-10-15T14:24:33.409Z,45.90
2022-10-15T14:27:05.631Z,29.00
2022-10-15T14:29:45.469Z,13.90
2022-10-15T14:32:20.535Z,14.25
2022-10-15T14:34:48.812Z,8.20
2022-10-15T14:37:34.989Z,7.05
2022-10-15T14:40:11.563Z,7.13
2022-10-15T14:42:40.941Z,6.60
2022-10-15T14:45:32.041Z,8.02
2022-10-15T14:48:00.774Z,7.07
2022-10-15T14:50:30.689Z,8.40
2022-10-15T14:52:59.363Z,9.07
2022-10-15T14:55:33.267Z,10.48
2022-10-15T14:58:08.120Z,9.30
2022-10-15T15:00:40.468Z,10.77
2022-10-15T15:03:08.199Z,14.63
2022-10-15T15:05:54.608Z,17.42
2022-10-15T15:08:22.557Z,19.80
2022-10-15T15:10:50.708Z,19.00
2022-10-15T15:13:22.037Z,18.33
2022-10-15T15:15:49.564Z,15.90
2022-10-15T15:18:17.410Z,16.08
2022-10-15T15:20:46.472Z,21.95
2022-10-15T15:23:19.999Z,20.38
2022-10-15T15:25:47.925Z,24.60
2022-10-15T15:28:20.606Z,28.42
2022-10-15T15:30:51.989Z,34.17
2022-10-15T15:33:19.564Z,40.67
2022-10-15T15:35:51.130Z,37.75
2022-10-15T15:38:19.626Z,28.25
2022-10-15T15:40:47.498Z,33.88
2022-10-15T15:43:16.872Z,16.20
2022-10-15T15:45:44.376Z,20.02
2022-10-15T15:48:11.885Z,12.60
2022-10-15T15:50:39.620Z,12.13
2022-10-15T15:53:07.044Z,10.63
2022-10-15T15:55:34.643Z,8.55
2022-10-15T15:58:02.032Z,7.60
2022-10-15T16:00:29.531Z,8.15
2022-10-15T16:02:58.037Z,9.23
2022-10-15T16:05:26.039Z,10.38
2022-10-15T16:07:53.587Z,11.98
2022-10-15T16:10:20.951Z,13.63
2022-10-15T16:12:48.495Z,13.52
2022-10-15T16:15:15.876Z,12.25
2022-10-15T16:17:44.009Z,12.75
2022-10-15T16:20:11.747Z,9.20
2022-10-15T16:22:39.349Z,9.25
2022-10-15T16:25:07.034Z,11.52
2022-10-15T16:27:34.622Z,10.88
2022-10-15T16:30:02.756Z,19.33
2022-10-15T16:32:30.268Z,12.18
2022-10-15T16:34:57.723Z,12.23
2022-10-15T16:37:25.470Z,12.90
2022-10-15T16:39:53.138Z,12.30
2022-10-15T16:42:20.625Z,10.73
2022-10-15T16:44:48.058Z,11.63
2022-10-15T16:47:15.492Z,12.73
2022-10-15T16:49:43.024Z,9.52
2022-10-15T16:52:10.520Z,11.30
2022-10-15T16:54:37.952Z,8.77
2022-10-15T16:57:05.435Z,8.98
2022-10-15T16:59:32.877Z,9.27
2022-10-15T17:02:01.371Z,9.45
2022-10-15T17:04:29.164Z,10.07
2022-10-15T17:06:56.591Z,9.82
2022-10-15T17:09:24.518Z,10.65
2022-10-15T17:11:52.002Z,11.80
2022-10-15T17:14:19.477Z,12.68
2022-10-15T17:16:51.654Z,11.40
2022-10-15T17:19:29.195Z,10.60
2022-10-15T17:21:59.426Z,10.07
2022-10-15T17:24:26.798Z,8.52
2022-10-15T17:26:54.840Z,7.85
2022-10-15T17:29:25.545Z,8.05
2022-10-15T17:31:55.437Z,7.82
2022-10-15T17:34:22.806Z,8.75
2022-10-15T17:36:50.988Z,8.15
2022-10-15T17:39:19.536Z,8.15
2022-10-15T17:41:47.082Z,7.78
2022-10-15T17:44:14.726Z,7.57
2022-10-15T17:46:42.464Z,7.22
2022-10-15T17:49:11.184Z,7.22
2022-10-15T17:51:39.965Z,7.75
2022-10-15T17:54:07.394Z,7.57
2022-10-15T17:56:36.044Z,8.38
2022-10-15T17:59:05.214Z,9.65
2022-10-15T18:01:56.760Z,9.48
2022-10-15T18:04:21.325Z,8.00
2022-10-15T18:06:48.778Z,8.32
2022-10-15T18:09:25.813Z,9.18
2022-10-15T18:11:56.026Z,11.45
2022-10-15T18:14:28.144Z,13.52
2022-10-15T18:16:55.767Z,11.18
2022-10-15T18:19:23.923Z,10.48
2022-10-15T18:21:51.348Z,9.20
2022-10-15T18:24:22.148Z,9.63
2022-10-15T18:26:50.368Z,9.32
2022-10-15T18:29:17.871Z,9.45
2022-10-15T18:31:47.049Z,10.02
2022-10-15T18:34:14.651Z,10.05
2022-10-15T18:36:43.674Z,10.25
2022-10-15T18:39:11.377Z,9.30
2022-10-15T18:41:40.300Z,10.18
2022-10-15T18:44:17.971Z,9.82
2022-10-15T18:46:45.810Z,10.85
2022-10-15T18:49:14.621Z,9.55
2022-10-15T18:51:42.142Z,9.77
2022-10-15T18:54:11.038Z,8.75
2022-10-15T18:56:38.725Z,8.82
2022-10-15T18:59:06.223Z,9.07
2022-10-15T19:01:38.972Z,8.70
2022-10-15T19:04:07.596Z,9.57
2022-10-15T19:06:36.414Z,9.23
2022-10-15T19:09:05.083Z,9.43
2022-10-15T19:11:33.117Z,9.13
2022-10-15T19:14:01.502Z,10.18
2022-10-15T19:16:29.210Z,9.57
2022-10-15T19:19:02.889Z,9.25
2022-10-15T19:21:31.047Z,9.27
2022-10-15T19:23:58.616Z,8.48
2022-10-15T19:26:27.005Z,8.88
2022-10-15T19:28:56.321Z,8.68
2022-10-15T19:31:25.958Z,8.50
2022-10-15T19:33:54.587Z,8.85
2022-10-15T19:36:42.214Z,8.80
2022-10-15T19:39:27.818Z,8.30
2022-10-15T19:44:26.037Z,8.90
2022-10-15T19:46:53.943Z,8.82
2022-10-15T19:49:21.927Z,8.30
2022-10-15T19:51:49.828Z,8.63
2022-10-15T19:54:17.419Z,9.13
2022-10-15T19:56:44.982Z,9.45
2022-10-15T19:59:12.696Z,9.80
2022-10-15T20:01:40.197Z,10.27
2022-10-15T20:04:07.680Z,10.43
2022-10-15T20:06:35.864Z,10.15
2022-10-15T20:09:03.611Z,10.43
2022-10-15T20:11:31.319Z,11.90
2022-10-15T20:14:02.099Z,10.93
2022-10-15T20:16:32.800Z,10.05
2022-10-15T20:19:02.432Z,10.30
2022-10-15T20:21:29.853Z,11.13
2022-10-15T20:23:57.331Z,10.23
2022-10-15T20:26:24.769Z,10.05
2022-10-15T20:28:53.530Z,9.68
2022-10-15T20:31:21.805Z,9.50
2022-10-15T20:33:49.810Z,10.70
2022-10-15T20:36:23.424Z,10.27
2022-10-15T20:38:51.367Z,10.20
2022-10-15T20:41:23.346Z,9.70
2022-10-15T20:43:54.519Z,9.95
2022-10-15T20:46:24.702Z,10.18
2022-10-15T20:48:52.159Z,10.18
2022-10-15T20:51:21.418Z,8.80
2022-10-15T20:53:52.808Z,9.88
2022-10-15T20:56:20.314Z,9.05
2022-10-15T20:58:47.943Z,8.60
2022-10-15T21:01:15.964Z,8.93
2022-10-15T21:03:43.479Z,9.52
2022-10-15T21:06:10.956Z,9.50
2022-10-15T21:08:38.479Z,9.25
2022-10-15T21:11:07.207Z,9.77
2022-10-15T21:13:35.278Z,9.48
2022-10-15T21:16:03.773Z,9.13
2022-10-15T21:18:31.167Z,9.75
2022-10-15T21:21:02.719Z,10.52
2022-10-15T21:23:30.776Z,10.02
2022-10-15T21:25:58.186Z,9.93
2022-10-15T21:28:25.659Z,9.20
2022-10-15T21:30:53.127Z,9.73
2022-10-15T21:33:20.552Z,9.48
2022-10-15T21:35:47.972Z,9.70
2022-10-15T21:38:15.465Z,8.95
2022-10-15T21:40:42.854Z,10.45
2022-10-15T21:43:10.214Z,9.43
2022-10-15T21:45:40.253Z,9.73
2022-10-15T21:48:07.738Z,9.40
2022-10-15T21:50:35.196Z,9.52
2022-10-15T21:53:03.870Z,9.55
2022-10-15T21:55:31.449Z,9.60
2022-10-15T21:57:58.846Z,9.43
2022-10-15T22:00:26.470Z,10.02
2022-10-15T22:02:53.859Z,9.50
2022-10-15T22:05:21.444Z,9.82
2022-10-15T22:07:48.832Z,10.50
2022-10-15T22:10:16.315Z,9.23
2022-10-15T22:12:43.893Z,9.65
2022-10-15T22:15:11.484Z,10.15
2022-10-15T22:17:38.879Z,10.68
2022-10-15T22:20:06.485Z,10.43
2022-10-15T22:22:33.959Z,10.88
2022-10-15T22:25:01.425Z,10.60
2022-10-15T22:27:28.848Z,11.18
2022-10-15T22:29:56.247Z,11.75
2022-10-15T22:32:24.082Z,11.68
2022-10-15T22:34:51.756Z,11.43
2022-10-15T22:37:19.450Z,11.20
2022-10-15T22:39:46.894Z,10.63
2022-10-15T22:42:14.362Z,10.77
2022-10-15T22:44:41.808Z,11.63
2022-10-15T22:47:09.805Z,12.50
2022-10-15T22:49:37.238Z,11.88
2022-10-15T22:52:04.663Z,12.20
2022-10-15T22:54:32.076Z,12.43
2022-10-15T22:56:59.452Z,12.23
2022-10-15T22:59:26.887Z,13.07
2022-10-15T23:01:54.290Z,12.32
2022-10-15T23:04:21.825Z,12.82
2022-10-15T23:06:49.750Z,11.75
2022-10-15T23:09:18.321Z,12.88
2022-10-15T23:11:46.089Z,12.38
2022-10-15T23:14:14.925Z,12.32
2022-10-15T23:16:43.555Z,11.43
2022-10-15T23:19:16.704Z,11.57
2022-10-15T23:21:48.170Z,11.93
2022-10-15T23:24:16.469Z,11.73
2022-10-15T23:26:44.696Z,12.60
2022-10-15T23:29:14.523Z,11.35
2022-10-15T23:31:42.303Z,11.10
2022-10-15T23:34:12.127Z,11.55
2022-10-15T23:36:39.538Z,11.88
2022-10-15T23:39:06.957Z,11.82
2022-10-15T23:41:34.414Z,12.90
2022-10-15T23:44:01.846Z,12.02
2022-10-15T23:46:29.274Z,12.13
2022-10-15T23:48:56.640Z,11.82
2022-10-15T23:51:31.029Z,11.20
2022-10-15T23:53:59.775Z,11.77
2022-10-15T23:56:27.566Z,11.85
2022-10-15T23:58:56.427Z,11.80
